Time;durP1;ratioP1;P1;durP2;ratioP2;P2;SDS_P1;SDS_P2;PMS_P1;PMS_P2;Temp;Humidity;BMP_temperature;BMP_pressure;BME280_temperature;BME280_humidity;BME280_pressure;Samples;Min_cycle;Max_cycle;Signal;HPM_P1;HPM_P2
2023/02/27 00:00:13;;;;;;;7.05;3.88;;;-3.70;98.00;;;;;;5027731;28;20398;-65
2023/02/27 00:02:42;;;;;;;7.53;4.22;;;-3.70;98.00;;;;;;5049626;28;20039;-64
2023/02/27 00:05:09;;;;;;;7.18;3.60;;;-3.80;98.00;;;;;;5030633;28;20040;-64
2023/02/27 00:07:35;;;;;;;9.20;4.13;;;-3.80;98.00;;;;;;5027361;28;20026;-64
2023/02/27 00:10:00;;;;;;;7.15;3.60;;;-3.80;98.00;;;;;;5035142;28;20040;-64
2023/02/27 00:12:26;;;;;;;6.93;3.60;;;-3.80;98.00;;;;;;5037634;28;20037;-64
2023/02/27 00:14:52;;;;;;;8.00;4.13;;;-3.90;98.00;;;;;;5024920;28;20022;-64
2023/02/27 00:17:17;;;;;;;7.20;4.03;;;-3.90;98.00;;;;;;5025391;28;20441;-64
2023/02/27 00:19:45;;;;;;;8.02;4.18;;;-4.00;98.00;;;;;;5045384;28;20330;-64
2023/02/27 00:22:11;;;;;;;7.07;3.75;;;-4.00;98.00;;;;;;5048211;28;20030;-64
2023/02/27 00:24:36;;;;;;;8.15;3.90;;;-4.10;98.00;;;;;;5028835;28;20030;-64
2023/02/27 00:27:02;;;;;;;8.05;4.20;;;-4.00;98.00;;;;;;5022502;28;20033;-65
2023/02/27 00:29:28;;;;;;;7.47;4.43;;;-4.10;98.00;;;;;;5038993;28;20029;-64
2023/02/27 00:31:53;;;;;;;9.70;3.42;;;-4.10;98.00;;;;;;5031292;28;20033;-64
2023/02/27 00:34:19;;;;;;;6.88;3.28;;;-4.20;98.00;;;;;;5021474;28;20027;-64
2023/02/27 00:36:44;;;;;;;7.45;3.83;;;-4.10;98.00;;;;;;5020183;28;20148;-64
2023/02/27 00:39:10;;;;;;;8.10;3.80;;;-4.10;98.00;;;;;;5017052;28;20111;-64
2023/02/27 00:41:35;;;;;;;8.65;3.78;;;-4.10;98.00;;;;;;5013533;28;20068;-64
2023/02/27 00:44:01;;;;;;;10.13;3.50;;;-4.10;98.00;;;;;;5015433;28;20032;-64
2023/02/27 00:46:26;;;;;;;5.97;3.80;;;-4.20;98.00;;;;;;5020335;28;20033;-64
2023/02/27 00:48:52;;;;;;;7.80;3.65;;;-4.20;98.00;;;;;;5027938;28;20075;-64
2023/02/27 00:51:19;;;;;;;6.90;3.70;;;-4.10;98.00;;;;;;5042224;28;20032;-64
2023/02/27 00:53:44;;;;;;;7.53;4.00;;;-4.00;98.00;;;;;;5033617;28;20044;-64
2023/02/27 00:56:10;;;;;;;7.22;4.10;;;-3.80;98.00;;;;;;5039462;28;20022;-64
2023/02/27 00:58:35;;;;;;;7.80;4.10;;;-3.80;98.00;;;;;;5022948;28;20034;-64
2023/02/27 01:01:01;;;;;;;8.23;3.70;;;-3.80;98.00;;;;;;5033202;28;20033;-64
2023/02/27 01:03:27;;;;;;;9.13;4.55;;;-3.80;98.00;;;;;;5038285;28;20334;-64
2023/02/27 01:05:52;;;;;;;6.65;4.32;;;-3.90;98.00;;;;;;5038057;28;20025;-64
2023/02/27 01:08:21;;;;;;;7.57;3.70;;;-3.90;98.00;;;;;;5033916;28;20108;-64
2023/02/27 01:10:46;;;;;;;7.00;3.90;;;-3.90;98.00;;;;;;5034840;28;20322;-64
2023/02/27 01:13:12;;;;;;;6.85;3.90;;;-4.00;98.00;;;;;;5039077;28;20025;-64
2023/02/27 01:15:37;;;;;;;5.93;4.00;;;-3.90;98.00;;;;;;5047412;28;20025;-64
2023/02/27 01:18:03;;;;;;;6.68;3.65;;;-4.00;98.00;;;;;;5039827;28;20147;-64
2023/02/27 01:20:28;;;;;;;9.40;3.92;;;-4.10;98.00;;;;;;5039220;28;20111;-63
2023/02/27 01:23:00;;;;;;;6.22;4.03;;;-4.00;98.00;;;;;;5028964;28;20108;-63
2023/02/27 01:25:25;;;;;;;6.88;4.20;;;-3.90;98.00;;;;;;5027046;28;20033;-64
2023/02/27 01:27:51;;;;;;;6.55;4.03;;;-3.90;98.00;;;;;;5029898;28;20026;-64
2023/02/27 01:30:16;;;;;;;6.78;3.92;;;-4.00;98.00;;;;;;5027764;28;20048;-63
2023/02/27 01:32:42;;;;;;;8.52;4.38;;;-3.90;98.00;;;;;;5037483;28;20026;-64
2023/02/27 01:35:08;;;;;;;6.50;3.90;;;-3.90;98.00;;;;;;5031406;28;20033;-64
2023/02/27 01:37:33;;;;;;;6.57;3.80;;;-4.00;98.00;;;;;;5023296;28;20030;-63
2023/02/27 01:39:59;;;;;;;12.05;6.32;;;-3.90;98.00;;;;;;5019870;28;20037;-63
2023/02/27 01:42:27;;;;;;;9.68;4.80;;;-3.80;98.00;;;;;;5030788;28;20720;-63
2023/02/27 01:45:11;;;;;;;5.90;3.30;;;-3.70;98.00;;;;;;5025737;28;20037;-63
2023/02/27 01:47:50;;;;;;;5.95;3.22;;;-3.60;98.00;;;;;;5035360;28;20088;-63
2023/02/27 01:50:18;;;;;;;5.43;3.30;;;-3.40;98.00;;;;;;5040141;28;20099;-63
2023/02/27 01:52:46;;;;;;;6.35;3.20;;;-3.30;98.00;;;;;;5036245;28;20084;-64
2023/02/27 01:55:15;;;;;;;6.55;3.15;;;-3.30;97.60;;;;;;5030951;28;20026;-65
2023/02/27 01:57:43;;;;;;;7.55;3.50;;;-3.40;97.80;;;;;;5032884;28;20042;-64
2023/02/27 02:00:13;;;;;;;6.47;3.80;;;-3.40;98.00;;;;;;5028767;28;20026;-64
2023/02/27 02:02:44;;;;;;;6.65;4.45;;;-3.40;98.00;;;;;;5034505;28;20303;-64
2023/02/27 02:05:14;;;;;;;5.07;3.03;;;-3.40;97.70;;;;;;5028750;28;20045;-64
2023/02/27 02:07:43;;;;;;;8.90;3.55;;;-3.60;97.80;;;;;;5033151;28;20473;-64
2023/02/27 02:10:11;;;;;;;8.05;3.80;;;-3.70;98.00;;;;;;5027537;28;20026;-64
2023/02/27 02:12:37;;;;;;;8.98;3.70;;;-3.70;98.00;;;;;;5023848;28;20338;-64
2023/02/27 02:15:05;;;;;;;6.45;3.67;;;-3.70;98.00;;;;;;5021484;28;20052;-64
2023/02/27 02:17:46;;;;;;;6.07;3.80;;;-3.70;98.00;;;;;;5019826;28;20322;-64
2023/02/27 02:20:34;;;;;;;9.63;4.05;;;-3.70;98.00;;;;;;5023428;28;20022;-64
2023/02/27 02:23:44;;;;;;;7.35;4.03;;;-3.70;98.00;;;;;;5018570;28;20034;-64
2023/02/27 02:26:25;;;;;;;6.35;4.05;;;-3.80;98.00;;;;;;5041616;28;20048;-63
2023/02/27 02:29:14;;;;;;;7.93;4.20;;;-3.80;98.00;;;;;;5040365;28;20108;-64
2023/02/27 02:31:46;;;;;;;11.43;4.70;;;-3.80;98.00;;;;;;5027389;28;20040;-64
2023/02/27 02:34:39;;;;;;;8.80;3.88;;;-3.80;98.00;;;;;;5025247;28;20101;-64
2023/02/27 02:37:43;;;;;;;7.32;4.28;;;-3.80;98.00;;;;;;5027221;28;20037;-63
2023/02/27 02:40:44;;;;;;;6.65;4.00;;;-3.90;98.00;;;;;;5023821;28;20030;-63
2023/02/27 02:43:39;;;;;;;8.70;4.55;;;-4.00;98.00;;;;;;5021747;28;20030;-63
2023/02/27 02:46:30;;;;;;;7.53;4.18;;;-4.10;98.00;;;;;;5020707;28;20022;-63
2023/02/27 02:49:11;;;;;;;7.63;4.35;;;-4.10;98.00;;;;;;5041955;28;20029;-63
2023/02/27 02:51:41;;;;;;;10.32;4.30;;;-4.10;98.00;;;;;;5024484;28;20027;-63
2023/02/27 02:54:44;;;;;;;7.00;4.38;;;-4.10;98.00;;;;;;5031493;28;20025;-64
2023/02/27 02:57:22;;;;;;;7.40;4.63;;;-4.10;98.00;;;;;;5023455;28;20025;-63
2023/02/27 03:00:18;;;;;;;9.65;4.38;;;-4.20;98.00;;;;;;5030723;28;20211;-63
2023/02/27 03:02:53;;;;;;;7.50;4.57;;;-4.20;98.00;;;;;;5026437;28;20037;-63
2023/02/27 03:05:34;;;;;;;8.60;4.78;;;-4.20;98.00;;;;;;5023336;28;20030;-63
2023/02/27 03:08:05;;;;;;;7.85;5.10;;;-4.10;98.00;;;;;;5034133;28;20021;-63
2023/02/27 03:10:42;;;;;;;6.53;4.32;;;-4.10;98.00;;;;;;5029856;28;20092;-63
2023/02/27 03:13:13;;;;;;;8.30;4.15;;;-3.90;98.00;;;;;;5032752;28;20028;-62
2023/02/27 03:16:00;;;;;;;8.10;4.55;;;-3.90;98.00;;;;;;5036570;28;20444;-63
2023/02/27 03:18:35;;;;;;;7.15;4.18;;;-3.90;98.00;;;;;;5036793;28;20028;-63
2023/02/27 03:21:07;;;;;;;9.88;4.70;;;-4.00;98.00;;;;;;5023709;28;20108;-63
2023/02/27 03:23:40;;;;;;;8.02;4.70;;;-4.00;98.00;;;;;;5013655;28;20021;-63
2023/02/27 03:26:07;;;;;;;7.90;3.90;;;-4.00;98.00;;;;;;5016474;28;20029;-63
2023/02/27 03:28:36;;;;;;;6.50;4.57;;;-4.10;98.00;;;;;;5014993;28;20287;-63
2023/02/27 03:31:39;;;;;;;9.18;4.50;;;-4.20;98.00;;;;;;5010147;28;20060;-63
2023/02/27 03:34:22;;;;;;;7.60;4.50;;;-4.10;98.00;;;;;;5016244;28;20145;-63
2023/02/27 03:37:07;;;;;;;9.32;4.13;;;-4.10;98.00;;;;;;5029697;28;20413;-62
2023/02/27 03:39:33;;;;;;;8.45;4.63;;;-4.20;98.00;;;;;;5011916;28;20041;-63
2023/02/27 03:42:20;;;;;;;7.75;4.57;;;-4.10;98.00;;;;;;5023151;28;20738;-63
2023/02/27 03:44:54;;;;;;;8.98;4.88;;;-4.10;98.00;;;;;;5028875;28;20030;-62
2023/02/27 03:47:19;;;;;;;8.13;5.05;;;-4.10;98.00;;;;;;5020331;28;20044;-63
2023/02/27 03:49:45;;;;;;;8.93;4.88;;;-4.20;98.00;;;;;;5032029;28;20251;-63
2023/02/27 03:52:11;;;;;;;8.45;5.13;;;-4.20;98.00;;;;;;5026243;28;20026;-63
2023/02/27 03:54:45;;;;;;;7.45;4.65;;;-4.20;98.00;;;;;;5034503;28;20373;-64
2023/02/27 03:57:14;;;;;;;7.28;4.95;;;-4.20;98.00;;;;;;5033098;28;20029;-63
2023/02/27 03:59:39;;;;;;;9.10;4.70;;;-4.20;98.00;;;;;;5027511;28;20037;-63
2023/02/27 04:02:06;;;;;;;8.50;5.18;;;-4.20;98.00;;;;;;5035503;28;20039;-63
2023/02/27 04:04:34;;;;;;;9.63;5.43;;;-4.20;98.00;;;;;;5019359;28;20212;-62
2023/02/27 04:07:23;;;;;;;7.18;4.82;;;-4.20;98.00;;;;;;5028783;28;20068;-63
2023/02/27 04:10:25;;;;;;;10.63;4.75;;;-4.20;98.00;;;;;;5032482;28;20322;-63
2023/02/27 04:13:18;;;;;;;7.72;4.80;;;-4.10;98.00;;;;;;5033020;28;20112;-63
2023/02/27 04:16:14;;;;;;;8.98;5.05;;;-4.20;98.00;;;;;;5016141;28;20613;-63
2023/02/27 04:19:03;;;;;;;8.18;4.40;;;-4.30;98.00;;;;;;5014751;28;20036;-62
2023/02/27 04:21:54;;;;;;;9.98;4.78;;;-4.40;98.00;;;;;;5023535;28;20033;-63
2023/02/27 04:24:31;;;;;;;8.20;4.85;;;-4.50;98.00;;;;;;5019450;28;20083;-63
2023/02/27 04:27:26;;;;;;;11.57;5.30;;;-4.50;98.00;;;;;;5022216;28;20037;-62
2023/02/27 04:29:54;;;;;;;9.93;5.78;;;-4.70;98.00;;;;;;5015796;28;20068;-62
2023/02/27 04:32:42;;;;;;;10.73;4.95;;;-4.50;98.00;;;;;;5020942;28;20490;-63
2023/02/27 04:35:25;;;;;;;8.60;5.10;;;-4.40;98.00;;;;;;5018242;28;20485;-62
2023/02/27 04:38:17;;;;;;;9.05;5.15;;;-4.60;98.00;;;;;;5022296;28;20299;-63
2023/02/27 04:40:51;;;;;;;9.25;4.90;;;-4.80;98.00;;;;;;5021819;28;20136;-62
2023/02/27 04:43:21;;;;;;;9.20;5.63;;;-5.00;98.00;;;;;;5020899;28;20037;-62
2023/02/27 04:45:47;;;;;;;7.90;5.57;;;-5.20;98.00;;;;;;5014505;28;20087;-63
2023/02/27 04:48:32;;;;;;;9.32;5.82;;;-5.20;98.00;;;;;;5025044;28;20040;-64
2023/02/27 04:51:03;;;;;;;;;;;-5.20;98.00;;;;;;5026101;28;20445;-63
2023/02/27 04:53:55;;;;;;;10.95;5.70;;;-5.40;98.00;;;;;;5034628;28;19909;-63
2023/02/27 04:56:32;;;;;;;11.63;6.80;;;-5.50;98.00;;;;;;5037130;28;20514;-63
2023/02/27 04:59:06;;;;;;;11.73;6.25;;;-5.50;97.20;;;;;;5035075;28;20049;-63
2023/02/27 05:01:44;;;;;;;13.05;6.28;;;-5.50;96.60;;;;;;5030836;28;20105;-61
2023/02/27 05:04:14;;;;;;;8.07;5.55;;;-5.50;96.50;;;;;;5025149;28;20033;-62
2023/02/27 05:06:43;;;;;;;10.18;5.80;;;-5.40;96.40;;;;;;5034318;28;20025;-63
2023/02/27 05:09:45;;;;;;;11.63;5.65;;;-5.40;96.60;;;;;;5027514;28;20021;-62
2023/02/27 05:12:29;;;;;;;9.75;5.90;;;-5.30;97.40;;;;;;5037606;28;20021;-62
2023/02/27 05:14:54;;;;;;;;;;;-5.20;97.80;;;;;;5030533;28;20045;-63
2023/02/27 05:17:35;;;;;;;12.57;6.03;;;-5.30;98.00;;;;;;5034147;28;20369;-62
2023/02/27 05:20:07;;;;;;;9.60;5.88;;;-5.20;98.00;;;;;;5031602;28;20037;-62
2023/02/27 05:22:33;;;;;;;39.97;17.35;;;-5.20;98.00;;;;;;5028681;28;20030;-62
2023/02/27 05:25:21;;;;;;;13.15;7.15;;;-5.30;98.00;;;;;;5030511;28;20110;-62
2023/02/27 05:27:55;;;;;;;12.90;6.35;;;-5.40;97.80;;;;;;5028412;28;20009;-64
2023/02/27 05:30:25;;;;;;;8.18;5.55;;;-5.40;97.30;;;;;;5023872;28;20049;-62
2023/02/27 05:33:23;;;;;;;10.65;6.47;;;-5.50;97.20;;;;;;5028472;28;20030;-63
2023/02/27 05:35:59;;;;;;;11.63;6.15;;;-5.60;96.70;;;;;;5031262;28;20072;-63
2023/02/27 05:38:42;;;;;;;9.57;6.20;;;-5.70;96.30;;;;;;5022468;28;20026;-62
2023/02/27 05:41:15;;;;;;;11.82;6.65;;;-5.60;95.70;;;;;;5030676;28;20025;-63
2023/02/27 05:44:04;;;;;;;12.40;5.93;;;-5.60;96.30;;;;;;5033230;28;20056;-63
2023/02/27 05:46:34;;;;;;;13.90;7.15;;;-5.60;96.50;;;;;;5032172;28;20116;-63
2023/02/27 05:49:05;;;;;;;14.55;9.18;;;-5.70;96.30;;;;;;5033479;28;20084;-63
2023/02/27 05:51:36;;;;;;;14.85;7.70;;;-5.80;95.90;;;;;;5039110;28;20368;-63
2023/02/27 05:54:11;;;;;;;10.88;6.85;;;-5.90;95.20;;;;;;5021108;28;20298;-63
2023/02/27 05:56:39;;;;;;;11.38;7.30;;;-5.90;94.10;;;;;;5030692;28;20026;-63
2023/02/27 05:59:17;;;;;;;10.52;6.38;;;-5.80;94.80;;;;;;5020726;28;20128;-63
2023/02/27 06:01:43;;;;;;;36.03;14.23;;;-5.70;95.40;;;;;;5027454;28;20021;-63
2023/02/27 06:04:09;;;;;;;16.48;8.43;;;-5.70;95.50;;;;;;5032772;28;20315;-62
2023/02/27 06:06:35;;;;;;;15.10;6.95;;;-5.60;96.50;;;;;;5023945;28;20038;-63
2023/02/27 06:09:01;;;;;;;13.90;8.30;;;-5.80;96.40;;;;;;5033567;28;20422;-63
2023/02/27 06:11:27;;;;;;;13.45;6.38;;;-5.80;96.00;;;;;;5038548;28;20034;-63
2023/02/27 06:13:52;;;;;;;11.70;6.90;;;-5.90;95.60;;;;;;5021427;28;20061;-62
2023/02/27 06:16:18;;;;;;;14.23;8.15;;;-5.90;93.80;;;;;;5013702;28;20033;-62
2023/02/27 06:18:44;;;;;;;14.88;7.57;;;-5.80;94.40;;;;;;5019125;28;20048;-63
2023/02/27 06:21:11;;;;;;;10.63;6.57;;;-5.70;95.00;;;;;;5022057;28;20056;-63
2023/02/27 06:23:36;;;;;;;11.63;6.95;;;-5.70;95.20;;;;;;5024447;28;20049;-63
2023/02/27 06:26:02;;;;;;;11.18;7.60;;;-5.80;94.80;;;;;;5022421;28;20029;-63
2023/02/27 06:28:30;;;;;;;11.13;6.57;;;-5.60;94.50;;;;;;5024442;28;20056;-63
2023/02/27 06:30:56;;;;;;;11.00;7.00;;;-5.40;96.50;;;;;;5021962;28;20038;-63
2023/02/27 06:33:22;;;;;;;12.82;7.05;;;-5.40;97.40;;;;;;5030170;28;20030;-63
2023/02/27 06:35:48;;;;;;;10.93;7.32;;;-5.50;97.20;;;;;;5023230;28;20024;-63
2023/02/27 06:38:14;;;;;;;11.88;6.60;;;-5.60;97.00;;;;;;5032093;28;20099;-63
2023/02/27 06:40:40;;;;;;;11.88;6.88;;;-5.60;96.50;;;;;;5030420;28;20113;-63
2023/02/27 06:43:05;;;;;;;12.52;7.30;;;-5.60;96.10;;;;;;5037871;28;20040;-63
2023/02/27 06:45:31;;;;;;;12.02;7.15;;;-5.50;96.50;;;;;;5035456;28;20096;-63
2023/02/27 06:47:56;;;;;;;15.23;7.82;;;-5.40;97.00;;;;;;5034271;28;20033;-63
2023/02/27 06:50:22;;;;;;;13.52;7.53;;;-5.40;96.50;;;;;;5038670;28;20055;-63
2023/02/27 06:52:48;;;;;;;15.93;8.20;;;-5.40;96.90;;;;;;5038573;28;20033;-63
2023/02/27 06:55:21;;;;;;;13.35;7.70;;;-5.40;96.80;;;;;;5038444;28;20292;-63
2023/02/27 06:57:47;;;;;;;13.07;7.28;;;-5.40;96.10;;;;;;5031975;28;20494;-63
2023/02/27 07:00:14;;;;;;;14.85;7.88;;;-5.40;96.20;;;;;;5036287;28;20216;-63
2023/02/27 07:02:40;;;;;;;12.45;7.00;;;-5.40;96.40;;;;;;5033464;28;20430;-63
2023/02/27 07:05:11;;;;;;;14.75;7.45;;;-5.30;96.40;;;;;;5029605;28;20178;-63
2023/02/27 07:07:37;;;;;;;12.25;8.02;;;-5.40;96.50;;;;;;5037222;28;20030;-63
2023/02/27 07:10:05;;;;;;;11.55;7.60;;;-5.40;95.70;;;;;;5036377;28;20041;-63
2023/02/27 07:12:31;;;;;;;13.63;7.88;;;-5.40;95.70;;;;;;5033884;28;20115;-63
2023/02/27 07:14:56;;;;;;;13.27;7.90;;;-5.30;95.50;;;;;;5029921;28;20445;-63
2023/02/27 07:17:22;;;;;;;15.13;8.10;;;-5.20;95.30;;;;;;5029074;28;20299;-63
2023/02/27 07:19:47;;;;;;;12.98;8.35;;;-5.20;95.90;;;;;;5017969;28;20022;-63
2023/02/27 07:22:13;;;;;;;11.32;8.13;;;-5.10;95.80;;;;;;5023394;28;20064;-63
2023/02/27 07:24:44;;;;;;;14.32;8.95;;;-5.00;96.10;;;;;;5034844;28;20021;-63
2023/02/27 07:27:10;;;;;;;12.57;7.30;;;-4.90;97.20;;;;;;5018399;28;20319;-64
2023/02/27 07:29:35;;;;;;;11.77;7.82;;;-4.70;97.10;;;;;;5021562;28;20030;-63
2023/02/27 07:32:01;;;;;;;13.93;7.53;;;-4.60;98.00;;;;;;5024515;28;20753;-63
2023/02/27 07:34:27;;;;;;;12.73;7.88;;;-4.50;98.00;;;;;;5029894;28;20025;-63
2023/02/27 07:36:52;;;;;;;14.43;8.32;;;-4.40;98.00;;;;;;5033581;28;21589;-63
2023/02/27 07:39:18;;;;;;;13.52;7.95;;;-4.30;98.00;;;;;;5031249;28;20430;-63
2023/02/27 07:41:43;;;;;;;13.70;6.68;;;-4.20;98.00;;;;;;5033709;28;20028;-63
2023/02/27 07:44:10;;;;;;;12.35;7.30;;;-4.10;98.00;;;;;;5033448;28;20039;-63
2023/02/27 07:46:35;;;;;;;15.98;8.57;;;-4.00;98.00;;;;;;5019798;28;20113;-63
2023/02/27 07:49:01;;;;;;;11.88;6.85;;;-3.90;98.00;;;;;;5017631;28;20105;-63
2023/02/27 07:51:27;;;;;;;17.33;8.48;;;-3.80;98.00;;;;;;5030900;28;20025;-63
2023/02/27 07:53:57;;;;;;;20.13;9.63;;;-3.80;98.00;;;;;;5019479;28;20029;-63
2023/02/27 07:56:22;;;;;;;11.93;7.05;;;-3.60;98.00;;;;;;5018398;28;20431;-63
2023/02/27 07:58:48;;;;;;;9.75;6.85;;;-3.50;98.00;;;;;;5017607;28;20069;-63
2023/02/27 08:01:17;;;;;;;13.68;6.20;;;-3.40;98.00;;;;;;5017007;28;20056;-63
2023/02/27 08:03:42;;;;;;;11.00;6.35;;;-3.20;98.00;;;;;;5032037;28;20022;-63
2023/02/27 08:06:08;;;;;;;10.50;7.07;;;-3.10;98.00;;;;;;5027141;28;20018;-63
2023/02/27 08:08:34;;;;;;;10.00;6.22;;;-3.00;98.00;;;;;;5026510;28;20117;-63
2023/02/27 08:10:59;;;;;;;18.02;6.57;;;-2.90;98.00;;;;;;5018062;28;20088;-63
2023/02/27 08:13:25;;;;;;;10.32;6.57;;;-2.80;98.00;;;;;;5018037;28;20030;-62
2023/02/27 08:15:50;;;;;;;9.98;5.82;;;-2.80;98.00;;;;;;5017427;28;20056;-62
2023/02/27 08:18:16;;;;;;;14.88;8.18;;;-2.60;98.00;;;;;;5023889;28;20021;-62
2023/02/27 08:20:44;;;;;;;12.07;5.90;;;-2.40;96.80;;;;;;5032052;28;20025;-62
2023/02/27 08:23:10;;;;;;;13.02;6.38;;;-2.00;96.60;;;;;;5024695;28;20033;-63
2023/02/27 08:25:36;;;;;;;9.15;4.93;;;-1.50;96.60;;;;;;5036388;28;20067;-64
2023/02/27 08:28:04;;;;;;;8.00;4.40;;;-0.70;94.30;;;;;;5033205;28;20057;-64
2023/02/27 08:30:30;;;;;;;9.98;4.65;;;0.50;89.80;;;;;;5027544;28;20026;-64
2023/02/27 08:32:55;;;;;;;8.45;3.92;;;1.60;85.50;;;;;;5024632;28;20030;-63
2023/02/27 08:35:22;;;;;;;8.05;3.90;;;2.00;82.80;;;;;;5029255;28;20292;-65
2023/02/27 08:37:48;;;;;;;10.63;4.72;;;2.60;81.70;;;;;;5018904;28;20032;-64
2023/02/27 08:40:14;;;;;;;7.25;3.85;;;3.50;78.50;;;;;;5035205;28;20291;-63
2023/02/27 08:42:40;;;;;;;8.10;3.60;;;3.30;77.10;;;;;;5037616;28;20021;-64
2023/02/27 08:45:07;;;;;;;6.97;3.80;;;3.40;76.90;;;;;;5034587;28;20036;-64
2023/02/27 08:47:32;;;;;;;7.78;3.72;;;3.80;76.10;;;;;;5028183;28;20034;-64
2023/02/27 08:49:58;;;;;;;7.90;3.47;;;3.80;75.50;;;;;;5026351;28;20448;-64
2023/02/27 08:52:23;;;;;;;6.57;3.17;;;4.00;74.60;;;;;;5023956;28;20032;-63
2023/02/27 08:54:52;;;;;;;5.82;3.28;;;3.90;73.90;;;;;;5025043;28;20026;-63
2023/02/27 08:57:17;;;;;;;7.13;3.50;;;3.70;73.40;;;;;;5016865;28;20105;-64
2023/02/27 08:59:43;;;;;;;8.43;3.63;;;3.90;74.50;;;;;;5021646;28;20061;-64
2023/02/27 09:02:10;;;;;;;5.65;3.33;;;3.60;73.80;;;;;;5033848;28;20084;-64
2023/02/27 09:04:35;;;;;;;6.03;2.67;;;3.70;74.20;;;;;;5025658;28;20085;-64
2023/02/27 09:07:01;;;;;;;5.95;3.20;;;4.40;74.00;;;;;;5018755;28;20080;-64
2023/02/27 09:09:27;;;;;;;7.70;3.22;;;4.10;71.60;;;;;;5037040;28;20026;-64
2023/02/27 09:11:53;;;;;;;5.72;3.38;;;3.80;72.60;;;;;;5018660;28;20033;-64
2023/02/27 09:14:18;;;;;;;6.40;3.45;;;4.10;73.30;;;;;;5039067;28;20021;-64
2023/02/27 09:16:44;;;;;;;8.05;3.70;;;4.40;72.10;;;;;;5033234;28;20068;-63
2023/02/27 09:19:10;;;;;;;10.88;3.72;;;4.70;71.80;;;;;;5038220;28;20021;-64
2023/02/27 09:21:36;;;;;;;11.05;6.90;;;4.40;71.50;;;;;;5034169;28;20029;-64
2023/02/27 09:24:05;;;;;;;37.78;19.80;;;3.20;72.20;;;;;;5019319;28;20038;-64
2023/02/27 09:26:30;;;;;;;27.83;13.05;;;3.20;74.00;;;;;;5029035;28;20056;-63
2023/02/27 09:28:56;;;;;;;34.28;21.02;;;3.50;72.80;;;;;;5024792;28;20414;-63
2023/02/27 09:31:21;;;;;;;17.42;11.65;;;3.30;73.40;;;;;;5025712;28;20071;-63
2023/02/27 09:33:47;;;;;;;7.32;5.10;;;3.90;73.30;;;;;;5028275;28;20021;-63
2023/02/27 09:36:13;;;;;;;7.72;3.45;;;4.10;72.20;;;;;;5038622;28;20078;-63
2023/02/27 09:38:38;;;;;;;9.68;3.00;;;3.80;72.40;;;;;;5036014;28;20688;-63
2023/02/27 09:41:06;;;;;;;10.38;3.83;;;4.00;71.20;;;;;;5034980;28;20407;-63
2023/02/27 09:44:00;;;;;;;10.93;3.10;;;4.50;71.40;;;;;;5023971;28;20053;-63
2023/02/27 09:46:27;;;;;;;5.80;2.85;;;4.40;71.00;;;;;;5027530;28;20435;-63
2023/02/27 09:48:57;;;;;;;6.03;3.00;;;4.90;69.50;;;;;;5025600;28;20305;-63
2023/02/27 09:51:23;;;;;;;6.65;3.50;;;5.30;70.10;;;;;;5019571;28;20033;-63
2023/02/27 09:53:51;;;;;;;5.53;2.83;;;5.60;68.10;;;;;;5025543;28;20022;-63
2023/02/27 09:56:22;;;;;;;10.68;2.90;;;5.30;67.30;;;;;;5039429;28;20029;-63
2023/02/27 09:58:59;;;;;;;6.15;2.85;;;4.90;66.80;;;;;;5039800;28;20033;-63
2023/02/27 10:01:35;;;;;;;5.90;2.75;;;3.40;69.10;;;;;;5023162;28;20033;-63
2023/02/27 10:04:39;;;;;;;8.43;3.00;;;1.90;71.70;;;;;;5016106;28;20030;-63
2023/02/27 10:07:17;;;;;;;6.13;3.00;;;1.20;74.40;;;;;;5015920;28;20037;-63
2023/02/27 10:09:55;;;;;;;6.82;3.15;;;1.40;74.60;;;;;;5015953;28;20426;-63
2023/02/27 10:12:27;;;;;;;8.77;3.45;;;1.30;74.10;;;;;;5015690;28;20034;-63
2023/02/27 10:15:17;;;;;;;7.25;3.65;;;1.70;73.60;;;;;;5015666;28;20441;-63
2023/02/27 10:17:50;;;;;;;6.80;3.53;;;1.70;74.30;;;;;;5015566;28;20042;-63
2023/02/27 10:20:25;;;;;;;5.97;3.33;;;1.70;73.50;;;;;;5031023;28;20025;-63
2023/02/27 10:22:54;;;;;;;5.70;3.20;;;1.40;74.20;;;;;;5030793;28;20026;-63
2023/02/27 10:25:20;;;;;;;9.13;3.50;;;1.50;74.50;;;;;;5016018;28;20029;-63
2023/02/27 10:27:51;;;;;;;5.60;3.17;;;1.50;74.80;;;;;;5015693;28;20026;-63
2023/02/27 10:30:19;;;;;;;4.78;2.60;;;2.10;74.10;;;;;;5014606;28;20026;-63
2023/02/27 10:32:47;;;;;;;5.00;3.10;;;2.60;73.20;;;;;;5015768;28;20026;-63
2023/02/27 10:35:34;;;;;;;7.88;3.40;;;2.50;70.60;;;;;;5015738;28;20018;-63
2023/02/27 10:38:03;;;;;;;5.88;3.28;;;2.00;72.20;;;;;;5015792;28;20045;-63
2023/02/27 10:40:36;;;;;;;8.02;3.38;;;1.50;73.50;;;;;;5015748;28;20288;-63
2023/02/27 10:43:03;;;;;;;5.25;3.13;;;1.20;75.20;;;;;;5016468;28;20434;-63
2023/02/27 10:45:29;;;;;;;6.32;3.40;;;1.00;74.90;;;;;;5018568;28;20030;-63
2023/02/27 10:47:55;;;;;;;5.72;3.25;;;1.10;76.30;;;;;;5039037;28;20047;-63
2023/02/27 10:50:36;;;;;;;8.88;3.30;;;1.90;75.00;;;;;;5038878;28;20497;-63
2023/02/27 10:53:06;;;;;;;5.75;3.40;;;2.10;74.20;;;;;;5037120;28;20025;-63
2023/02/27 10:55:34;;;;;;;11.82;5.88;;;2.00;73.90;;;;;;5021790;28;20053;-63
2023/02/27 10:58:02;;;;;;;9.10;3.72;;;1.50;74.70;;;;;;5018851;28;20046;-63
2023/02/27 11:00:54;;;;;;;7.15;4.00;;;1.40;75.90;;;;;;5018803;28;20109;-63
2023/02/27 11:03:51;;;;;;;6.95;3.70;;;1.50;75.60;;;;;;5019031;28;20438;-63
2023/02/27 11:06:26;;;;;;;6.82;3.85;;;1.40;76.20;;;;;;5017791;28;20042;-63
2023/02/27 11:09:16;;;;;;;5.90;3.70;;;1.30;76.40;;;;;;5027679;28;20026;-62
2023/02/27 11:11:42;;;;;;;9.43;4.20;;;1.50;75.40;;;;;;5038384;28;20029;-62
2023/02/27 11:14:34;;;;;;;7.38;3.85;;;1.60;75.60;;;;;;5038331;28;20318;-63
2023/02/27 11:17:01;;;;;;;6.70;4.22;;;1.60;74.90;;;;;;5017318;28;20161;-65
2023/02/27 11:19:37;;;;;;;6.05;3.70;;;1.70;74.90;;;;;;5031235;28;20148;-65
2023/02/27 11:22:07;;;;;;;7.78;3.40;;;1.90;75.60;;;;;;5036412;28;20029;-64
2023/02/27 11:24:33;;;;;;;6.65;3.28;;;2.10;75.10;;;;;;5038190;28;20025;-64
2023/02/27 11:27:05;;;;;;;8.23;3.53;;;2.00;73.40;;;;;;5037337;28;20419;-64
2023/02/27 11:29:33;;;;;;;6.65;3.53;;;2.00;74.20;;;;;;5038305;28;20045;-64
2023/02/27 11:32:18;;;;;;;7.57;3.38;;;2.10;74.20;;;;;;5036425;28;20025;-64
2023/02/27 11:34:53;;;;;;;6.90;3.47;;;2.20;73.80;;;;;;5018377;28;20041;-64
2023/02/27 11:37:27;;;;;;;5.55;3.20;;;2.20;74.20;;;;;;5027544;28;20021;-64
2023/02/27 11:40:32;;;;;;;5.45;3.42;;;2.10;74.00;;;;;;5037102;28;20096;-64
2023/02/27 11:43:14;;;;;;;7.97;3.40;;;1.90;74.30;;;;;;5037634;28;20037;-64
2023/02/27 11:45:39;;;;;;;6.57;3.50;;;1.90;74.20;;;;;;5035601;28;20078;-64
2023/02/27 11:48:23;;;;;;;6.25;3.58;;;2.00;74.10;;;;;;5037853;28;20429;-64
2023/02/27 11:51:00;;;;;;;5.32;3.17;;;1.70;73.80;;;;;;5037578;28;20029;-64
2023/02/27 11:54:18;;;;;;;5.45;3.58;;;1.70;74.50;;;;;;5037874;28;20025;-63
2023/02/27 11:56:46;;;;;;;6.07;3.35;;;1.80;74.00;;;;;;5036928;28;20029;-63
2023/02/27 11:59:30;;;;;;;6.15;3.55;;;2.00;74.00;;;;;;5037485;28;20044;-63
2023/02/27 12:02:35;;;;;;;6.47;3.33;;;1.80;73.40;;;;;;5035321;28;20104;-64
2023/02/27 12:05:23;;;;;;;6.15;3.45;;;1.90;75.50;;;;;;5029604;28;20042;-64
2023/02/27 12:08:33;;;;;;;6.65;3.38;;;3.10;74.30;;;;;;5017766;28;20057;-64
2023/02/27 12:11:27;;;;;;;5.50;3.22;;;3.10;71.80;;;;;;5015572;28;20095;-63
2023/02/27 12:14:07;;;;;;;6.93;4.28;;;2.50;72.40;;;;;;5016556;28;20038;-64
2023/02/27 12:16:44;;;;;;;6.90;3.60;;;1.90;73.70;;;;;;5016435;28;20025;-64
2023/02/27 12:19:25;;;;;;;6.90;4.45;;;1.80;74.90;;;;;;5017560;28;20021;-64
2023/02/27 12:21:55;;;;;;;6.85;3.40;;;1.70;74.90;;;;;;5029920;28;20091;-64
2023/02/27 12:24:39;;;;;;;7.03;4.10;;;1.40;74.90;;;;;;5021006;28;20026;-63
2023/02/27 12:27:18;;;;;;;6.28;4.40;;;1.00;76.60;;;;;;5017417;28;20014;-64
2023/02/27 12:29:53;;;;;;;7.57;3.80;;;0.80;77.20;;;;;;5017809;28;20022;-64
2023/02/27 12:32:36;;;;;;;6.68;3.85;;;1.00;78.10;;;;;;5016708;28;20057;-64
2023/02/27 12:35:26;;;;;;;7.25;3.70;;;1.20;77.20;;;;;;5017771;28;20423;-64
2023/02/27 12:37:52;;;;;;;8.57;4.53;;;1.30;76.60;;;;;;5031639;28;20059;-64
2023/02/27 12:40:21;;;;;;;8.02;4.65;;;1.30;76.80;;;;;;5022884;28;20379;-64
2023/02/27 12:42:56;;;;;;;6.82;4.45;;;1.20;76.90;;;;;;5017069;28;20033;-64
2023/02/27 12:45:25;;;;;;;6.22;3.70;;;1.70;76.70;;;;;;5016354;28;20026;-64
2023/02/27 12:48:27;;;;;;;7.13;4.07;;;2.00;74.40;;;;;;5031772;28;20090;-64
2023/02/27 12:51:20;;;;;;;8.43;4.13;;;2.20;74.40;;;;;;5021047;28;20029;-64
2023/02/27 12:54:00;;;;;;;9.20;4.38;;;1.60;74.20;;;;;;5036659;28;20099;-64
2023/02/27 12:56:36;;;;;;;7.43;4.85;;;1.30;75.50;;;;;;5020035;28;20037;-64
2023/02/27 12:59:21;;;;;;;10.07;4.65;;;1.10;76.00;;;;;;5035659;28;20054;-64
2023/02/27 13:01:56;;;;;;;6.95;3.90;;;1.80;77.50;;;;;;5019164;28;20030;-64
2023/02/27 13:04:43;;;;;;;8.65;4.15;;;2.20;73.90;;;;;;5017062;28;20295;-64
2023/02/27 13:07:34;;;;;;;9.32;4.72;;;2.20;74.00;;;;;;5024850;28;20034;-64
2023/02/27 13:10:31;;;;;;;9.13;4.45;;;1.90;74.10;;;;;;5024844;28;20044;-64
2023/02/27 13:13:33;;;;;;;7.47;4.35;;;2.10;75.30;;;;;;5016181;28;20037;-64
2023/02/27 13:16:08;;;;;;;7.18;3.75;;;3.40;74.00;;;;;;5016870;28;20438;-64
2023/02/27 13:18:44;;;;;;;6.35;3.63;;;4.30;70.30;;;;;;5035969;28;20025;-64